sensor_id;sensor_type;location;lat;lon;timestamp;temperature;humidity
4922;DHT22;16625;53.624;10.106;2023-04-15T07:37:15;8.60;99.90
4922;DHT22;16625;53.624;10.106;2023-04-15T07:39:55;8.60;99.90
4922;DHT22;16625;53.624;10.106;2023-04-15T07:42:26;8.60;99.90
4922;DHT22;16625;53.624;10.106;2023-04-15T07:44:58;8.70;99.90
4922;DHT22;16625;53.624;10.106;2023-04-15T07:47:25;8.70;99.90
4922;DHT22;16625;53.624;10.106;2023-04-15T07:49:56;8.70;99.90
4922;DHT22;16625;53.624;10.106;2023-04-15T07:52:26;8.70;99.90
4922;DHT22;16625;53.624;10.106;2023-04-15T07:54:53;8.80;99.90
4922;DHT22;16625;53.624;10.106;2023-04-15T07:57:24;8.90;99.90
4922;DHT22;16625;53.624;10.106;2023-04-15T07:59:51;8.90;99.90
4922;DHT22;16625;53.624;10.106;2023-04-15T08:02:18;8.90;99.90
4922;DHT22;16625;53.624;10.106;2023-04-15T08:04:44;8.90;99.90
4922;DHT22;16625;53.624;10.106;2023-04-15T08:07:15;9.00;99.90
4922;DHT22;16625;53.624;10.106;2023-04-15T08:12:58;8.90;99.90
4922;DHT22;16625;53.624;10.106;2023-04-15T08:15:28;9.00;99.90
4922;DHT22;16625;53.624;10.106;2023-04-15T08:17:59;9.10;99.90
4922;DHT22;16625;53.624;10.106;2023-04-15T08:21:03;9.20;99.90
4922;DHT22;16625;53.624;10.106;2023-04-15T08:23:37;9.20;99.90
4922;DHT22;16625;53.624;10.106;2023-04-15T08:26:04;9.30;99.90
4922;DHT22;16625;53.624;10.106;2023-04-15T08:28:33;9.40;99.90
4922;DHT22;16625;53.624;10.106;2023-04-15T08:31:04;9.40;99.90
4922;DHT22;16625;53.624;10.106;2023-04-15T08:33:53;9.50;99.90
4922;DHT22;16625;53.624;10.106;2023-04-15T08:36:21;9.50;99.90
4922;DHT22;16625;53.624;10.106;2023-04-15T08:38:58;9.60;99.90
4922;DHT22;16625;53.624;10.106;2023-04-15T08:41:26;9.80;99.90
4922;DHT22;16625;53.624;10.106;2023-04-15T08:44:04;9.60;99.90
4922;DHT22;16625;53.624;10.106;2023-04-15T08:46:32;9.60;99.90
4922;DHT22;16625;53.624;10.106;2023-04-15T08:49:03;9.50;99.90
4922;DHT22;16625;53.624;10.106;2023-04-15T08:51:31;9.60;99.90
4922;DHT22;16625;53.624;10.106;2023-04-15T08:54:08;9.60;99.90
4922;DHT22;16625;53.624;10.106;2023-04-15T08:56:40;9.80;99.90
4922;DHT22;16625;53.624;10.106;2023-04-15T08:59:21;9.80;99.90
4922;DHT22;16625;53.624;10.106;2023-04-15T09:01:51;9.90;99.90
4922;DHT22;16625;53.624;10.106;2023-04-15T09:04:20;9.90;99.90
4922;DHT22;16625;53.624;10.106;2023-04-15T09:06:47;10.10;99.90
4922;DHT22;16625;53.624;10.106;2023-04-15T09:09:28;10.20;99.90
4922;DHT22;16625;53.624;10.106;2023-04-15T09:12:12;10.30;99.90
4922;DHT22;16625;53.624;10.106;2023-04-15T09:14:53;10.40;99.90
4922;DHT22;16625;53.624;10.106;2023-04-15T09:17:24;10.50;99.90
4922;DHT22;16625;53.624;10.106;2023-04-15T09:20:10;10.50;99.90
4922;DHT22;16625;53.624;10.106;2023-04-15T09:22:49;10.60;99.90
4922;DHT22;16625;53.624;10.106;2023-04-15T09:25:31;10.70;99.90
4922;DHT22;16625;53.624;10.106;2023-04-15T09:28:02;11.00;99.90
4922;DHT22;16625;53.624;10.106;2023-04-15T09:30:41;11.30;99.90
4922;DHT22;16625;53.624;10.106;2023-04-15T09:33:21;11.50;99.90
4922;DHT22;16625;53.624;10.106;2023-04-15T09:36:03;11.60;1.00
4922;DHT22;16625;53.624;10.106;2023-04-15T09:38:34;11.90;1.00
4922;DHT22;16625;53.624;10.106;2023-04-15T09:41:16;12.00;1.00
4922;DHT22;16625;53.624;10.106;2023-04-15T09:43:45;12.20;1.00
4922;DHT22;16625;53.624;10.106;2023-04-15T09:49:54;12.40;1.00
4922;DHT22;16625;53.624;10.106;2023-04-15T09:52:27;12.50;1.00
4922;DHT22;16625;53.624;10.106;2023-04-15T09:55:02;12.40;1.00
4922;DHT22;16625;53.624;10.106;2023-04-15T09:57:38;12.40;1.00
4922;DHT22;16625;53.624;10.106;2023-04-15T10:00:13;12.50;1.00
4922;DHT22;16625;53.624;10.106;2023-04-15T10:02:49;12.60;1.00
4922;DHT22;16625;53.624;10.106;2023-04-15T10:05:51;12.80;1.00
4922;DHT22;16625;53.624;10.106;2023-04-15T10:08:31;13.20;99.90
4922;DHT22;16625;53.624;10.106;2023-04-15T10:11:22;13.60;1.00
4922;DHT22;16625;53.624;10.106;2023-04-15T10:14:11;13.60;1.00
4922;DHT22;16625;53.624;10.106;2023-04-15T10:17:05;13.50;99.90
4922;DHT22;16625;53.624;10.106;2023-04-15T10:19:52;13.30;1.00
4922;DHT22;16625;53.624;10.106;2023-04-15T10:22:49;13.20;99.90
4922;DHT22;16625;53.624;10.106;2023-04-15T10:25:22;13.10;92.70
4922;DHT22;16625;53.624;10.106;2023-04-15T10:27:53;13.20;99.90
4922;DHT22;16625;53.624;10.106;2023-04-15T10:30:44;13.20;99.90
4922;DHT22;16625;53.624;10.106;2023-04-15T10:34:04;13.30;99.90
4922;DHT22;16625;53.624;10.106;2023-04-15T10:36:34;13.50;1.00
4922;DHT22;16625;53.624;10.106;2023-04-15T10:42:33;14.30;93.60
4922;DHT22;16625;53.624;10.106;2023-04-15T10:45:25;14.90;99.90
4922;DHT22;16625;53.624;10.106;2023-04-15T10:48:01;15.00;99.90
4922;DHT22;16625;53.624;10.106;2023-04-15T10:50:38;14.80;1.00
4922;DHT22;16625;53.624;10.106;2023-04-15T10:54:03;14.80;1.00
4922;DHT22;16625;53.624;10.106;2023-04-15T10:56:18;14.80;99.90
4922;DHT22;16625;53.624;10.106;2023-04-15T10:58:48;14.70;99.90
4922;DHT22;16625;53.624;10.106;2023-04-15T11:01:15;14.60;1.00
4922;DHT22;16625;53.624;10.106;2023-04-15T11:04:02;14.60;1.00
4922;DHT22;16625;53.624;10.106;2023-04-15T11:06:43;14.60;1.00
4922;DHT22;16625;53.624;10.106;2023-04-15T11:09:30;14.40;99.90
4922;DHT22;16625;53.624;10.106;2023-04-15T11:12:05;14.60;98.50
4922;DHT22;16625;53.624;10.106;2023-04-15T11:14:39;14.60;1.00
4922;DHT22;16625;53.624;10.106;2023-04-15T11:17:07;14.50;99.90
4922;DHT22;16625;53.624;10.106;2023-04-15T11:19:35;14.50;64.90
4922;DHT22;16625;53.624;10.106;2023-04-15T11:22:07;14.50;1.00
4922;DHT22;16625;53.624;10.106;2023-04-15T11:24:56;14.40;71.10
4922;DHT22;16625;53.624;10.106;2023-04-15T11:27:45;14.60;1.00
4922;DHT22;16625;53.624;10.106;2023-04-15T11:30:30;14.60;99.90
4922;DHT22;16625;53.624;10.106;2023-04-15T11:33:12;14.50;99.90
4922;DHT22;16625;53.624;10.106;2023-04-15T11:35:55;14.50;99.90
4922;DHT22;16625;53.624;10.106;2023-04-15T11:38:27;14.70;99.90
4922;DHT22;16625;53.624;10.106;2023-04-15T11:41:18;14.80;1.00
4922;DHT22;16625;53.624;10.106;2023-04-15T11:43:54;15.30;1.00
4922;DHT22;16625;53.624;10.106;2023-04-15T11:46:29;15.20;99.90
4922;DHT22;16625;53.624;10.106;2023-04-15T11:49:01;15.30;99.90
4922;DHT22;16625;53.624;10.106;2023-04-15T11:51:38;15.00;99.90
4922;DHT22;16625;53.624;10.106;2023-04-15T11:54:07;14.80;99.90
4922;DHT22;16625;53.624;10.106;2023-04-15T11:56:52;14.80;99.90
4922;DHT22;16625;53.624;10.106;2023-04-15T11:59:43;14.70;99.90
4922;DHT22;16625;53.624;10.106;2023-04-15T12:02:29;14.70;99.90
4922;DHT22;16625;53.624;10.106;2023-04-15T12:05:03;14.70;99.90
4922;DHT22;16625;53.624;10.106;2023-04-15T12:07:31;14.70;99.90
4922;DHT22;16625;53.624;10.106;2023-04-15T12:10:02;14.60;99.90
4922;DHT22;16625;53.624;10.106;2023-04-15T12:12:36;14.40;99.90
4922;DHT22;16625;53.624;10.106;2023-04-15T12:15:04;14.30;99.90
4922;DHT22;16625;53.624;10.106;2023-04-15T12:17:33;14.20;99.90
4922;DHT22;16625;53.624;10.106;2023-04-15T12:20:00;14.10;99.90
4922;DHT22;16625;53.624;10.106;2023-04-15T12:22:28;14.20;99.90
4922;DHT22;16625;53.624;10.106;2023-04-15T12:24:55;14.20;99.90
4922;DHT22;16625;53.624;10.106;2023-04-15T12:27:28;14.10;99.90
4922;DHT22;16625;53.624;10.106;2023-04-15T12:30:08;14.10;99.90
4922;DHT22;16625;53.624;10.106;2023-04-15T12:36:43;14.20;99.90
4922;DHT22;16625;53.624;10.106;2023-04-15T12:39:05;14.20;58.70
4922;DHT22;16625;53.624;10.106;2023-04-15T12:41:41;14.20;2.80
4922;DHT22;16625;53.624;10.106;2023-04-15T12:44:22;14.30;12.10
4922;DHT22;16625;53.624;10.106;2023-04-15T12:50:08;14.50;23.90
4922;DHT22;16625;53.624;10.106;2023-04-15T12:52:57;14.60;1.00
4922;DHT22;16625;53.624;10.106;2023-04-15T12:55:39;14.70;1.00
4922;DHT22;16625;53.624;10.106;2023-04-15T13:00:58;14.70;1.00
4922;DHT22;16625;53.624;10.106;2023-04-15T13:03:25;14.80;1.00
4922;DHT22;16625;53.624;10.106;2023-04-15T13:05:52;15.00;1.00
4922;DHT22;16625;53.624;10.106;2023-04-15T13:08:21;15.20;1.00
4922;DHT22;16625;53.624;10.106;2023-04-15T13:10:48;15.30;1.00
4922;DHT22;16625;53.624;10.106;2023-04-15T13:13:15;15.40;1.00
4922;DHT22;16625;53.624;10.106;2023-04-15T13:15:42;15.30;1.00
4922;DHT22;16625;53.624;10.106;2023-04-15T13:18:11;15.20;1.00
4922;DHT22;16625;53.624;10.106;2023-04-15T13:20:38;15.40;1.00
4922;DHT22;16625;53.624;10.106;2023-04-15T13:23:05;15.50;1.00
4922;DHT22;16625;53.624;10.106;2023-04-15T13:25:34;15.50;1.00
4922;DHT22;16625;53.624;10.106;2023-04-15T13:28:01;15.70;1.00
4922;DHT22;16625;53.624;10.106;2023-04-15T13:30:28;15.60;1.00
4922;DHT22;16625;53.624;10.106;2023-04-15T13:32:55;15.50;1.00
4922;DHT22;16625;53.624;10.106;2023-04-15T13:35:22;15.40;1.00
4922;DHT22;16625;53.624;10.106;2023-04-15T13:37:49;15.50;1.00
4922;DHT22;16625;53.624;10.106;2023-04-15T13:40:16;15.40;1.00
4922;DHT22;16625;53.624;10.106;2023-04-15T13:42:45;15.30;1.00
4922;DHT22;16625;53.624;10.106;2023-04-15T13:45:11;14.80;1.00
4922;DHT22;16625;53.624;10.106;2023-04-15T13:47:39;14.50;1.00
4922;DHT22;16625;53.624;10.106;2023-04-15T13:50:07;14.50;1.00
4922;DHT22;16625;53.624;10.106;2023-04-15T13:52:34;14.70;1.00
4922;DHT22;16625;53.624;10.106;2023-04-15T13:55:01;14.70;1.00
4922;DHT22;16625;53.624;10.106;2023-04-15T13:57:28;15.00;1.00
4922;DHT22;16625;53.624;10.106;2023-04-15T13:59:57;14.90;1.00
4922;DHT22;16625;53.624;10.106;2023-04-15T14:02:24;14.80;1.00
4922;DHT22;16625;53.624;10.106;2023-04-15T14:04:50;14.90;1.00
4922;DHT22;16625;53.624;10.106;2023-04-15T14:07:17;14.80;1.00
4922;DHT22;16625;53.624;10.106;2023-04-15T14:09:46;14.90;1.00
4922;DHT22;16625;53.624;10.106;2023-04-15T14:12:13;14.80;1.00
4922;DHT22;16625;53.624;10.106;2023-04-15T14:14:41;14.70;1.00
4922;DHT22;16625;53.624;10.106;2023-04-15T14:17:10;14.70;1.00
4922;DHT22;16625;53.624;10.106;2023-04-15T14:19:37;14.80;1.00
4922;DHT22;16625;53.624;10.106;2023-04-15T14:22:05;14.70;1.00
4922;DHT22;16625;53.624;10.106;2023-04-15T14:24:31;14.80;1.00
4922;DHT22;16625;53.624;10.106;2023-04-15T14:26:59;14.80;1.00
4922;DHT22;16625;53.624;10.106;2023-04-15T14:29:26;14.90;1.00
4922;DHT22;16625;53.624;10.106;2023-04-15T14:31:53;15.00;1.00
4922;DHT22;16625;53.624;10.106;2023-04-15T14:34:27;15.00;1.00
4922;DHT22;16625;53.624;10.106;2023-04-15T14:36:54;14.90;1.00
4922;DHT22;16625;53.624;10.106;2023-04-15T14:39:21;15.00;1.00
4922;DHT22;16625;53.624;10.106;2023-04-15T14:41:50;15.00;1.00
4922;DHT22;16625;53.624;10.106;2023-04-15T14:44:20;14.80;1.00
4922;DHT22;16625;53.624;10.106;2023-04-15T14:46:47;14.60;1.00
4922;DHT22;16625;53.624;10.106;2023-04-15T14:49:14;14.50;1.00
4922;DHT22;16625;53.624;10.106;2023-04-15T14:51:43;14.50;1.00
4922;DHT22;16625;53.624;10.106;2023-04-15T14:54:10;14.50;1.00
4922;DHT22;16625;53.624;10.106;2023-04-15T14:56:37;14.70;1.00
4922;DHT22;16625;53.624;10.106;2023-04-15T14:59:04;14.60;1.00
4922;DHT22;16625;53.624;10.106;2023-04-15T15:01:32;14.70;1.00
4922;DHT22;16625;53.624;10.106;2023-04-15T15:03:59;14.60;1.00
4922;DHT22;16625;53.624;10.106;2023-04-15T15:06:26;14.60;1.00
4922;DHT22;16625;53.624;10.106;2023-04-15T15:08:54;14.50;1.00
4922;DHT22;16625;53.624;10.106;2023-04-15T15:11:21;14.30;1.00
4922;DHT22;16625;53.624;10.106;2023-04-15T15:13:48;14.30;1.00
4922;DHT22;16625;53.624;10.106;2023-04-15T15:16:15;14.10;1.00
4922;DHT22;16625;53.624;10.106;2023-04-15T15:18:44;13.90;1.00
4922;DHT22;16625;53.624;10.106;2023-04-15T15:21:11;13.90;1.00
4922;DHT22;16625;53.624;10.106;2023-04-15T15:23:39;13.90;1.00
4922;DHT22;16625;53.624;10.106;2023-04-15T15:26:07;14.10;1.00
4922;DHT22;16625;53.624;10.106;2023-04-15T15:28:37;14.00;1.00
4922;DHT22;16625;53.624;10.106;2023-04-15T15:31:04;13.90;1.00
4922;DHT22;16625;53.624;10.106;2023-04-15T15:33:31;14.00;1.00
4922;DHT22;16625;53.624;10.106;2023-04-15T15:35:58;14.00;1.00
4922;DHT22;16625;53.624;10.106;2023-04-15T15:38:25;14.10;1.00
4922;DHT22;16625;53.624;10.106;2023-04-15T15:40:53;14.10;1.00
4922;DHT22;16625;53.624;10.106;2023-04-15T15:43:21;14.10;1.00
4922;DHT22;16625;53.624;10.106;2023-04-15T15:45:48;14.00;1.00
4922;DHT22;16625;53.624;10.106;2023-04-15T15:48:16;13.80;1.00
4922;DHT22;16625;53.624;10.106;2023-04-15T15:50:44;13.60;1.00
4922;DHT22;16625;53.624;10.106;2023-04-15T15:53:11;13.40;1.00
4922;DHT22;16625;53.624;10.106;2023-04-15T15:55:42;13.30;1.00
4922;DHT22;16625;53.624;10.106;2023-04-15T15:58:09;13.20;1.00
4922;DHT22;16625;53.624;10.106;2023-04-15T16:00:38;13.10;1.00
4922;DHT22;16625;53.624;10.106;2023-04-15T16:03:05;13.00;1.00
4922;DHT22;16625;53.624;10.106;2023-04-15T16:05:32;13.00;1.00
4922;DHT22;16625;53.624;10.106;2023-04-15T16:07:59;13.10;1.00
4922;DHT22;16625;53.624;10.106;2023-04-15T16:10:26;12.90;1.00
4922;DHT22;16625;53.624;10.106;2023-04-15T16:12:53;12.80;10.80
4922;DHT22;16625;53.624;10.106;2023-04-15T16:15:21;12.80;56.70
4922;DHT22;16625;53.624;10.106;2023-04-15T16:17:50;12.70;99.90
4922;DHT22;16625;53.624;10.106;2023-04-15T16:20:17;12.60;99.90
4922;DHT22;16625;53.624;10.106;2023-04-15T16:22:44;12.60;99.90
4922;DHT22;16625;53.624;10.106;2023-04-15T16:25:11;12.50;99.90
4922;DHT22;16625;53.624;10.106;2023-04-15T16:27:38;12.60;99.90
4922;DHT22;16625;53.624;10.106;2023-04-15T16:30:06;12.40;99.90
4922;DHT22;16625;53.624;10.106;2023-04-15T16:32:33;12.40;99.90
4922;DHT22;16625;53.624;10.106;2023-04-15T16:35:02;12.40;99.90
4922;DHT22;16625;53.624;10.106;2023-04-15T16:37:29;12.40;99.90
4922;DHT22;16625;53.624;10.106;2023-04-15T16:39:57;12.40;1.00
4922;DHT22;16625;53.624;10.106;2023-04-15T16:42:25;12.50;1.00
4922;DHT22;16625;53.624;10.106;2023-04-15T16:44:52;12.40;1.00
4922;DHT22;16625;53.624;10.106;2023-04-15T16:47:20;12.40;1.00
4922;DHT22;16625;53.624;10.106;2023-04-15T16:49:50;12.30;23.20
4922;DHT22;16625;53.624;10.106;2023-04-15T16:52:25;12.30;83.50
4922;DHT22;16625;53.624;10.106;2023-04-15T16:54:51;12.20;99.90
4922;DHT22;16625;53.624;10.106;2023-04-15T16:57:18;12.20;99.90
4922;DHT22;16625;53.624;10.106;2023-04-15T16:59:46;12.20;41.00
4922;DHT22;16625;53.624;10.106;2023-04-15T17:02:13;12.10;28.10
4922;DHT22;16625;53.624;10.106;2023-04-15T17:04:40;12.10;58.90
4922;DHT22;16625;53.624;10.106;2023-04-15T17:07:07;11.90;71.60
4922;DHT22;16625;53.624;10.106;2023-04-15T17:09:38;12.10;99.90
4922;DHT22;16625;53.624;10.106;2023-04-15T17:12:05;12.00;99.90
4922;DHT22;16625;53.624;10.106;2023-04-15T17:14:32;11.90;99.90
4922;DHT22;16625;53.624;10.106;2023-04-15T17:17:00;12.00;99.90
4922;DHT22;16625;53.624;10.106;2023-04-15T17:19:26;11.80;99.90
4922;DHT22;16625;53.624;10.106;2023-04-15T17:21:54;11.90;99.90
4922;DHT22;16625;53.624;10.106;2023-04-15T17:24:22;11.90;99.90
4922;DHT22;16625;53.624;10.106;2023-04-15T17:26:51;11.90;99.90
4922;DHT22;16625;53.624;10.106;2023-04-15T17:29:18;11.80;99.90
4922;DHT22;16625;53.624;10.106;2023-04-15T17:31:45;11.70;1.00
4922;DHT22;16625;53.624;10.106;2023-04-15T17:34:12;11.80;1.00
4922;DHT22;16625;53.624;10.106;2023-04-15T17:36:39;11.70;1.00
4922;DHT22;16625;53.624;10.106;2023-04-15T17:39:06;11.80;55.40
4922;DHT22;16625;53.624;10.106;2023-04-15T17:41:33;11.70;99.90
4922;DHT22;16625;53.624;10.106;2023-04-15T17:44:02;11.80;99.90
4922;DHT22;16625;53.624;10.106;2023-04-15T17:46:29;11.70;99.90
4922;DHT22;16625;53.624;10.106;2023-04-15T17:48:56;11.70;99.90
4922;DHT22;16625;53.624;10.106;2023-04-15T17:51:23;11.60;99.90
4922;DHT22;16625;53.624;10.106;2023-04-15T17:53:50;11.60;99.90
4922;DHT22;16625;53.624;10.106;2023-04-15T17:56:17;11.40;1.00
4922;DHT22;16625;53.624;10.106;2023-04-15T17:58:44;11.30;1.00
4922;DHT22;16625;53.624;10.106;2023-04-15T18:01:13;11.20;99.90
4922;DHT22;16625;53.624;10.106;2023-04-15T18:03:40;11.10;99.90
4922;DHT22;16625;53.624;10.106;2023-04-15T18:06:07;11.10;99.90
4922;DHT22;16625;53.624;10.106;2023-04-15T18:08:35;11.00;1.00
4922;DHT22;16625;53.624;10.106;2023-04-15T18:11:03;11.00;1.00
4922;DHT22;16625;53.624;10.106;2023-04-15T18:13:30;11.00;99.90
4922;DHT22;16625;53.624;10.106;2023-04-15T18:15:58;10.80;1.00
4922;DHT22;16625;53.624;10.106;2023-04-15T18:18:27;10.80;1.00
4922;DHT22;16625;53.624;10.106;2023-04-15T18:20:54;10.70;99.90
4922;DHT22;16625;53.624;10.106;2023-04-15T18:23:20;10.70;99.90
4922;DHT22;16625;53.624;10.106;2023-04-15T18:25:47;10.60;99.90
4922;DHT22;16625;53.624;10.106;2023-04-15T18:28:15;10.50;99.90
4922;DHT22;16625;53.624;10.106;2023-04-15T18:30:42;10.50;99.90
4922;DHT22;16625;53.624;10.106;2023-04-15T18:33:09;10.40;99.90
4922;DHT22;16625;53.624;10.106;2023-04-15T18:35:38;10.40;99.90
4922;DHT22;16625;53.624;10.106;2023-04-15T18:38:07;10.30;99.90
4922;DHT22;16625;53.624;10.106;2023-04-15T18:40:34;10.30;1.00
4922;DHT22;16625;53.624;10.106;2023-04-15T18:43:01;10.20;59.20
4922;DHT22;16625;53.624;10.106;2023-04-15T18:45:28;10.20;99.90
4922;DHT22;16625;53.624;10.106;2023-04-15T18:47:56;10.00;99.90
4922;DHT22;16625;53.624;10.106;2023-04-15T18:50:23;10.00;1.00
4922;DHT22;16625;53.624;10.106;2023-04-15T18:52:51;9.90;1.00
4922;DHT22;16625;53.624;10.106;2023-04-15T18:55:18;9.90;1.00
4922;DHT22;16625;53.624;10.106;2023-04-15T18:57:45;9.80;1.00
4922;DHT22;16625;53.624;10.106;2023-04-15T19:00:13;9.90;1.00
4922;DHT22;16625;53.624;10.106;2023-04-15T19:02:40;9.80;1.00
4922;DHT22;16625;53.624;10.106;2023-04-15T19:08:53;9.80;1.00
4922;DHT22;16625;53.624;10.106;2023-04-15T19:11:22;9.70;99.90
4922;DHT22;16625;53.624;10.106;2023-04-15T19:13:49;9.60;99.90
4922;DHT22;16625;53.624;10.106;2023-04-15T19:16:16;9.60;99.90
4922;DHT22;16625;53.624;10.106;2023-04-15T19:18:43;9.50;1.00
4922;DHT22;16625;53.624;10.106;2023-04-15T19:21:11;9.50;1.00
4922;DHT22;16625;53.624;10.106;2023-04-15T19:23:38;9.40;1.00
4922;DHT22;16625;53.624;10.106;2023-04-15T19:26:09;9.40;9.00
4922;DHT22;16625;53.624;10.106;2023-04-15T19:28:36;9.30;99.90
4922;DHT22;16625;53.624;10.106;2023-04-15T19:31:03;9.30;1.00
4922;DHT22;16625;53.624;10.106;2023-04-15T19:33:30;9.30;60.80
4922;DHT22;16625;53.624;10.106;2023-04-15T19:35:58;9.20;99.90
4922;DHT22;16625;53.624;10.106;2023-04-15T19:38:26;9.20;99.90
4922;DHT22;16625;53.624;10.106;2023-04-15T19:40:53;9.20;99.90
4922;DHT22;16625;53.624;10.106;2023-04-15T19:43:22;9.20;99.90
4922;DHT22;16625;53.624;10.106;2023-04-15T19:45:50;9.30;99.90
4922;DHT22;16625;53.624;10.106;2023-04-15T19:48:21;9.30;99.90
4922;DHT22;16625;53.624;10.106;2023-04-15T19:50:48;9.30;99.90
4922;DHT22;16625;53.624;10.106;2023-04-15T19:53:15;9.20;99.90
4922;DHT22;16625;53.624;10.106;2023-04-15T19:55:42;9.20;99.90
4922;DHT22;16625;53.624;10.106;2023-04-15T19:58:10;9.20;99.90
4922;DHT22;16625;53.624;10.106;2023-04-15T20:00:39;9.30;99.90
4922;DHT22;16625;53.624;10.106;2023-04-15T20:03:06;9.20;99.90
4922;DHT22;16625;53.624;10.106;2023-04-15T20:05:33;9.20;1.00
4922;DHT22;16625;53.624;10.106;2023-04-15T20:08:01;9.20;99.90
4922;DHT22;16625;53.624;10.106;2023-04-15T20:10:28;9.20;99.90
4922;DHT22;16625;53.624;10.106;2023-04-15T20:12:56;9.20;99.90
4922;DHT22;16625;53.624;10.106;2023-04-15T20:15:23;9.20;99.90
4922;DHT22;16625;53.624;10.106;2023-04-15T20:17:51;9.20;99.90
4922;DHT22;16625;53.624;10.106;2023-04-15T20:20:22;9.20;54.40
4922;DHT22;16625;53.624;10.106;2023-04-15T20:22:49;9.20;1.00
4922;DHT22;16625;53.624;10.106;2023-04-15T20:25:17;9.20;1.00
4922;DHT22;16625;53.624;10.106;2023-04-15T20:27:44;9.00;1.00
4922;DHT22;16625;53.624;10.106;2023-04-15T20:30:11;9.00;99.90
4922;DHT22;16625;53.624;10.106;2023-04-15T20:32:38;8.90;99.50
4922;DHT22;16625;53.624;10.106;2023-04-15T20:35:08;8.80;99.90
4922;DHT22;16625;53.624;10.106;2023-04-15T20:37:36;8.80;99.90
4922;DHT22;16625;53.624;10.106;2023-04-15T20:40:08;8.80;99.90
4922;DHT22;16625;53.624;10.106;2023-04-15T20:42:36;8.70;99.90
4922;DHT22;16625;53.624;10.106;2023-04-15T20:45:04;8.70;1.00
4922;DHT22;16625;53.624;10.106;2023-04-15T20:47:31;8.70;1.00
4922;DHT22;16625;53.624;10.106;2023-04-15T20:49:58;8.70;14.40
4922;DHT22;16625;53.624;10.106;2023-04-15T20:52:27;8.60;1.00
4922;DHT22;16625;53.624;10.106;2023-04-15T20:54:57;8.70;99.90
4922;DHT22;16625;53.624;10.106;2023-04-15T20:57:24;8.60;99.90
4922;DHT22;16625;53.624;10.106;2023-04-15T20:59:51;8.60;99.90
4922;DHT22;16625;53.624;10.106;2023-04-15T21:02:18;8.60;99.90
4922;DHT22;16625;53.624;10.106;2023-04-15T21:04:46;8.60;99.90
4922;DHT22;16625;53.624;10.106;2023-04-15T21:07:13;8.50;1.00
4922;DHT22;16625;53.624;10.106;2023-04-15T21:09:41;8.50;1.00
4922;DHT22;16625;53.624;10.106;2023-04-15T21:12:10;8.40;39.70
4922;DHT22;16625;53.624;10.106;2023-04-15T21:14:38;8.40;1.00
4922;DHT22;16625;53.624;10.106;2023-04-15T21:17:05;8.50;1.00
4922;DHT22;16625;53.624;10.106;2023-04-15T21:19:33;8.40;1.00
4922;DHT22;16625;53.624;10.106;2023-04-15T21:22:00;8.30;17.30
4922;DHT22;16625;53.624;10.106;2023-04-15T21:24:27;8.40;93.10
4922;DHT22;16625;53.624;10.106;2023-04-15T21:26:55;8.50;10.00
4922;DHT22;16625;53.624;10.106;2023-04-15T21:29:22;8.30;99.90
4922;DHT22;16625;53.624;10.106;2023-04-15T21:31:49;8.30;99.90
4922;DHT22;16625;53.624;10.106;2023-04-15T21:34:16;8.20;99.90
4922;DHT22;16625;53.624;10.106;2023-04-15T21:36:43;8.30;99.90
4922;DHT22;16625;53.624;10.106;2023-04-15T21:39:10;8.40;99.90
4922;DHT22;16625;53.624;10.106;2023-04-15T21:41:37;8.30;99.90
4922;DHT22;16625;53.624;10.106;2023-04-15T21:44:05;8.30;99.90
4922;DHT22;16625;53.624;10.106;2023-04-15T21:46:32;8.20;99.90
4922;DHT22;16625;53.624;10.106;2023-04-15T21:48:59;8.20;1.00
4922;DHT22;16625;53.624;10.106;2023-04-15T21:51:27;8.30;1.00
4922;DHT22;16625;53.624;10.106;2023-04-15T21:53:56;8.20;1.00
4922;DHT22;16625;53.624;10.106;2023-04-15T21:56:23;8.40;99.90
4922;DHT22;16625;53.624;10.106;2023-04-15T21:58:54;8.30;1.00
4922;DHT22;16625;53.624;10.106;2023-04-15T22:01:23;8.20;99.90
4922;DHT22;16625;53.624;10.106;2023-04-15T22:03:50;8.30;1.00
4922;DHT22;16625;53.624;10.106;2023-04-15T22:06:20;8.20;1.00
4922;DHT22;16625;53.624;10.106;2023-04-15T22:08:48;8.20;1.00
4922;DHT22;16625;53.624;10.106;2023-04-15T22:11:18;8.30;1.00
4922;DHT22;16625;53.624;10.106;2023-04-15T22:13:47;8.10;1.00
4922;DHT22;16625;53.624;10.106;2023-04-15T22:16:14;8.10;1.00
4922;DHT22;16625;53.624;10.106;2023-04-15T22:18:42;8.20;1.00
4922;DHT22;16625;53.624;10.106;2023-04-15T22:21:09;8.10;1.00
4922;DHT22;16625;53.624;10.106;2023-04-15T22:23:36;8.10;17.00
4922;DHT22;16625;53.624;10.106;2023-04-15T22:26:04;8.20;99.90
4922;DHT22;16625;53.624;10.106;2023-04-15T22:28:31;8.10;99.90
4922;DHT22;16625;53.624;10.106;2023-04-15T22:30:58;8.10;99.90
4922;DHT22;16625;53.624;10.106;2023-04-15T22:33:25;8.10;99.90
4922;DHT22;16625;53.624;10.106;2023-04-15T22:35:53;8.20;99.90
4922;DHT22;16625;53.624;10.106;2023-04-15T22:38:20;8.00;99.90
4922;DHT22;16625;53.624;10.106;2023-04-15T22:40:47;7.90;99.90
4922;DHT22;16625;53.624;10.106;2023-04-15T22:43:14;7.90;99.90
4922;DHT22;16625;53.624;10.106;2023-04-15T22:45:40;7.90;99.90
4922;DHT22;16625;53.624;10.106;2023-04-15T22:48:07;7.90;99.90
4922;DHT22;16625;53.624;10.106;2023-04-15T22:50:37;7.90;99.90
4922;DHT22;16625;53.624;10.106;2023-04-15T22:53:05;7.80;99.90
4922;DHT22;16625;53.624;10.106;2023-04-15T22:55:32;7.90;99.90
4922;DHT22;16625;53.624;10.106;2023-04-15T22:57:59;7.80;99.90
4922;DHT22;16625;53.624;10.106;2023-04-15T23:00:26;7.80;99.90
4922;DHT22;16625;53.624;10.106;2023-04-15T23:02:53;7.80;99.90
4922;DHT22;16625;53.624;10.106;2023-04-15T23:05:20;7.80;99.90
4922;DHT22;16625;53.624;10.106;2023-04-15T23:07:46;7.80;99.90
4922;DHT22;16625;53.624;10.106;2023-04-15T23:10:19;7.80;99.90
4922;DHT22;16625;53.624;10.106;2023-04-15T23:12:46;7.90;99.90
4922;DHT22;16625;53.624;10.106;2023-04-15T23:15:13;7.90;99.90
4922;DHT22;16625;53.624;10.106;2023-04-15T23:17:40;7.90;99.90
4922;DHT22;16625;53.624;10.106;2023-04-15T23:20:08;7.80;99.90
4922;DHT22;16625;53.624;10.106;2023-04-15T23:22:35;7.80;99.90
4922;DHT22;16625;53.624;10.106;2023-04-15T23:25:03;7.80;99.90
4922;DHT22;16625;53.624;10.106;2023-04-15T23:27:32;7.70;99.90
4922;DHT22;16625;53.624;10.106;2023-04-15T23:29:59;7.70;99.90
4922;DHT22;16625;53.624;10.106;2023-04-15T23:32:26;7.50;1.00
4922;DHT22;16625;53.624;10.106;2023-04-15T23:34:53;7.50;1.00
4922;DHT22;16625;53.624;10.106;2023-04-15T23:37:28;7.50;1.00
4922;DHT22;16625;53.624;10.106;2023-04-15T23:39:55;7.30;1.00
4922;DHT22;16625;53.624;10.106;2023-04-15T23:42:22;7.20;1.00
4922;DHT22;16625;53.624;10.106;2023-04-15T23:44:52;7.20;1.00
4922;DHT22;16625;53.624;10.106;2023-04-15T23:47:19;7.20;1.00
4922;DHT22;16625;53.624;10.106;2023-04-15T23:49:46;7.10;38.80
4922;DHT22;16625;53.624;10.106;2023-04-15T23:52:13;7.00;71.60
4922;DHT22;16625;53.624;10.106;2023-04-15T23:54:40;6.90;99.90
4922;DHT22;16625;53.624;10.106;2023-04-15T23:57:06;6.90;99.90
4922;DHT22;16625;53.624;10.106;2023-04-15T23:59:33;6.90;99.90
